sensor_id;sensor_type;location;lat;lon;timestamp;temperature;humidity
75819;DHT22;64453;51.944;9.796;2023-02-02T00:00:31;8.90;52.60
75819;DHT22;64453;51.944;9.796;2023-02-02T00:02:59;9.00;52.70
75819;DHT22;64453;51.944;9.796;2023-02-02T00:05:26;8.80;52.50
75819;DHT22;64453;51.944;9.796;2023-02-02T00:07:53;8.50;53.40
75819;DHT22;64453;51.944;9.796;2023-02-02T00:10:20;8.70;53.50
75819;DHT22;64453;51.944;9.796;2023-02-02T00:12:47;8.50;52.60
75819;DHT22;64453;51.944;9.796;2023-02-02T00:15:14;8.20;53.40
75819;DHT22;64453;51.944;9.796;2023-02-02T00:17:41;7.90;54.80
75819;DHT22;64453;51.944;9.796;2023-02-02T00:20:10;8.40;54.20
75819;DHT22;64453;51.944;9.796;2023-02-02T00:22:37;8.50;53.90
75819;DHT22;64453;51.944;9.796;2023-02-02T00:25:04;8.50;53.50
75819;DHT22;64453;51.944;9.796;2023-02-02T00:27:32;8.70;52.90
75819;DHT22;64453;51.944;9.796;2023-02-02T00:30:00;8.30;54.40
75819;DHT22;64453;51.944;9.796;2023-02-02T00:32:27;8.70;53.90
75819;DHT22;64453;51.944;9.796;2023-02-02T00:34:54;9.00;53.00
75819;DHT22;64453;51.944;9.796;2023-02-02T00:37:22;8.70;52.90
75819;DHT22;64453;51.944;9.796;2023-02-02T00:39:49;8.30;53.40
75819;DHT22;64453;51.944;9.796;2023-02-02T00:42:16;8.30;53.30
75819;DHT22;64453;51.944;9.796;2023-02-02T00:44:43;8.50;53.90
75819;DHT22;64453;51.944;9.796;2023-02-02T00:47:27;8.40;53.70
75819;DHT22;64453;51.944;9.796;2023-02-02T00:49:54;8.20;54.10
75819;DHT22;64453;51.944;9.796;2023-02-02T00:52:23;8.20;54.10
75819;DHT22;64453;51.944;9.796;2023-02-02T00:54:50;8.20;53.90
75819;DHT22;64453;51.944;9.796;2023-02-02T00:57:16;8.30;54.20
75819;DHT22;64453;51.944;9.796;2023-02-02T00:59:43;8.50;54.20
75819;DHT22;64453;51.944;9.796;2023-02-02T01:02:11;8.40;54.30
75819;DHT22;64453;51.944;9.796;2023-02-02T01:04:38;8.50;53.30
75819;DHT22;64453;51.944;9.796;2023-02-02T01:07:06;8.40;54.10
75819;DHT22;64453;51.944;9.796;2023-02-02T01:09:34;8.70;53.90
75819;DHT22;64453;51.944;9.796;2023-02-02T01:12:01;8.40;53.80
75819;DHT22;64453;51.944;9.796;2023-02-02T01:14:28;8.30;54.40
75819;DHT22;64453;51.944;9.796;2023-02-02T01:16:55;8.30;54.80
75819;DHT22;64453;51.944;9.796;2023-02-02T01:19:22;8.00;55.20
75819;DHT22;64453;51.944;9.796;2023-02-02T01:21:49;8.30;54.60
75819;DHT22;64453;51.944;9.796;2023-02-02T01:24:16;8.60;53.60
75819;DHT22;64453;51.944;9.796;2023-02-02T01:26:45;8.40;53.90
75819;DHT22;64453;51.944;9.796;2023-02-02T01:29:11;8.40;53.70
75819;DHT22;64453;51.944;9.796;2023-02-02T01:31:40;8.00;54.40
75819;DHT22;64453;51.944;9.796;2023-02-02T01:34:07;8.60;54.10
75819;DHT22;64453;51.944;9.796;2023-02-02T01:36:34;8.90;53.10
75819;DHT22;64453;51.944;9.796;2023-02-02T01:39:02;9.10;52.60
75819;DHT22;64453;51.944;9.796;2023-02-02T01:41:29;8.50;53.30
75819;DHT22;64453;51.944;9.796;2023-02-02T01:43:59;8.40;53.60
75819;DHT22;64453;51.944;9.796;2023-02-02T01:46:28;8.30;54.20
75819;DHT22;64453;51.944;9.796;2023-02-02T01:49:00;8.30;54.30
75819;DHT22;64453;51.944;9.796;2023-02-02T01:51:40;8.50;54.60
75819;DHT22;64453;51.944;9.796;2023-02-02T01:54:12;8.20;55.00
75819;DHT22;64453;51.944;9.796;2023-02-02T01:56:45;8.40;55.10
75819;DHT22;64453;51.944;9.796;2023-02-02T01:59:16;8.60;54.60
75819;DHT22;64453;51.944;9.796;2023-02-02T02:01:44;8.70;54.10
75819;DHT22;64453;51.944;9.796;2023-02-02T02:04:12;8.60;54.60
75819;DHT22;64453;51.944;9.796;2023-02-02T02:06:40;8.90;54.10
75819;DHT22;64453;51.944;9.796;2023-02-02T02:09:08;8.70;54.10
75819;DHT22;64453;51.944;9.796;2023-02-02T02:11:35;8.80;54.20
75819;DHT22;64453;51.944;9.796;2023-02-02T02:14:04;9.30;53.60
75819;DHT22;64453;51.944;9.796;2023-02-02T02:17:11;9.10;53.70
75819;DHT22;64453;51.944;9.796;2023-02-02T02:20:11;8.40;55.20
75819;DHT22;64453;51.944;9.796;2023-02-02T02:23:43;9.00;54.30
75819;DHT22;64453;51.944;9.796;2023-02-02T02:27:10;8.50;54.90
75819;DHT22;64453;51.944;9.796;2023-02-02T02:32:50;8.60;54.90
75819;DHT22;64453;51.944;9.796;2023-02-02T02:35:24;8.80;54.20
75819;DHT22;64453;51.944;9.796;2023-02-02T02:37:59;9.00;53.70
75819;DHT22;64453;51.944;9.796;2023-02-02T02:40:34;8.50;54.00
75819;DHT22;64453;51.944;9.796;2023-02-02T02:43:05;8.70;54.10
75819;DHT22;64453;51.944;9.796;2023-02-02T02:45:35;8.50;54.70
75819;DHT22;64453;51.944;9.796;2023-02-02T02:48:04;8.60;54.70
75819;DHT22;64453;51.944;9.796;2023-02-02T02:50:31;8.90;54.30
75819;DHT22;64453;51.944;9.796;2023-02-02T02:53:04;9.10;53.50
75819;DHT22;64453;51.944;9.796;2023-02-02T02:55:39;8.80;53.90
75819;DHT22;64453;51.944;9.796;2023-02-02T02:58:10;8.70;54.40
75819;DHT22;64453;51.944;9.796;2023-02-02T03:00:47;8.40;54.70
75819;DHT22;64453;51.944;9.796;2023-02-02T03:03:36;8.90;54.30
75819;DHT22;64453;51.944;9.796;2023-02-02T03:06:17;8.80;54.00
75819;DHT22;64453;51.944;9.796;2023-02-02T03:08:49;8.70;54.80
75819;DHT22;64453;51.944;9.796;2023-02-02T03:11:19;8.40;55.70
75819;DHT22;64453;51.944;9.796;2023-02-02T03:13:46;8.80;54.60
75819;DHT22;64453;51.944;9.796;2023-02-02T03:16:14;8.70;54.80
75819;DHT22;64453;51.944;9.796;2023-02-02T03:18:43;8.20;56.00
75819;DHT22;64453;51.944;9.796;2023-02-02T03:21:10;8.10;56.70
75819;DHT22;64453;51.944;9.796;2023-02-02T03:23:38;8.40;56.20
75819;DHT22;64453;51.944;9.796;2023-02-02T03:26:05;8.60;55.50
75819;DHT22;64453;51.944;9.796;2023-02-02T03:28:32;8.30;55.50
75819;DHT22;64453;51.944;9.796;2023-02-02T03:30:59;8.80;55.30
75819;DHT22;64453;51.944;9.796;2023-02-02T03:33:27;8.80;55.00
75819;DHT22;64453;51.944;9.796;2023-02-02T03:35:58;8.70;55.60
75819;DHT22;64453;51.944;9.796;2023-02-02T03:38:25;8.60;56.20
75819;DHT22;64453;51.944;9.796;2023-02-02T03:40:52;8.20;56.60
75819;DHT22;64453;51.944;9.796;2023-02-02T03:43:19;8.10;56.50
75819;DHT22;64453;51.944;9.796;2023-02-02T03:45:47;8.50;56.70
75819;DHT22;64453;51.944;9.796;2023-02-02T03:48:14;8.70;56.20
75819;DHT22;64453;51.944;9.796;2023-02-02T03:50:40;8.70;55.90
75819;DHT22;64453;51.944;9.796;2023-02-02T03:53:09;8.70;56.20
75819;DHT22;64453;51.944;9.796;2023-02-02T03:55:36;9.00;55.10
75819;DHT22;64453;51.944;9.796;2023-02-02T03:58:05;9.30;54.50
75819;DHT22;64453;51.944;9.796;2023-02-02T04:00:32;9.10;55.10
75819;DHT22;64453;51.944;9.796;2023-02-02T04:02:59;9.00;54.70
75819;DHT22;64453;51.944;9.796;2023-02-02T04:05:26;8.50;56.20
75819;DHT22;64453;51.944;9.796;2023-02-02T04:07:53;8.60;56.20
75819;DHT22;64453;51.944;9.796;2023-02-02T04:10:21;8.60;56.90
75819;DHT22;64453;51.944;9.796;2023-02-02T04:12:48;8.80;56.20
75819;DHT22;64453;51.944;9.796;2023-02-02T04:15:15;8.80;55.90
75819;DHT22;64453;51.944;9.796;2023-02-02T04:17:42;8.80;55.70
75819;DHT22;64453;51.944;9.796;2023-02-02T04:20:10;8.40;56.50
75819;DHT22;64453;51.944;9.796;2023-02-02T04:22:37;8.70;56.20
75819;DHT22;64453;51.944;9.796;2023-02-02T04:25:05;8.50;57.80
75819;DHT22;64453;51.944;9.796;2023-02-02T04:27:34;8.80;56.80
75819;DHT22;64453;51.944;9.796;2023-02-02T04:30:01;8.90;56.40
75819;DHT22;64453;51.944;9.796;2023-02-02T04:32:28;8.90;56.90
75819;DHT22;64453;51.944;9.796;2023-02-02T04:34:55;8.70;56.60
75819;DHT22;64453;51.944;9.796;2023-02-02T04:37:22;9.10;56.40
75819;DHT22;64453;51.944;9.796;2023-02-02T04:39:48;9.10;55.90
75819;DHT22;64453;51.944;9.796;2023-02-02T04:42:16;9.40;55.20
75819;DHT22;64453;51.944;9.796;2023-02-02T04:44:44;9.20;55.80
75819;DHT22;64453;51.944;9.796;2023-02-02T04:47:11;9.40;55.60
75819;DHT22;64453;51.944;9.796;2023-02-02T04:49:38;9.20;55.50
75819;DHT22;64453;51.944;9.796;2023-02-02T04:52:06;9.40;55.60
75819;DHT22;64453;51.944;9.796;2023-02-02T04:54:33;9.00;55.80
75819;DHT22;64453;51.944;9.796;2023-02-02T04:57:01;9.30;55.50
75819;DHT22;64453;51.944;9.796;2023-02-02T04:59:28;9.10;55.80
75819;DHT22;64453;51.944;9.796;2023-02-02T05:01:58;9.50;55.40
75819;DHT22;64453;51.944;9.796;2023-02-02T05:04:25;9.30;56.00
75819;DHT22;64453;51.944;9.796;2023-02-02T05:06:53;9.20;56.40
75819;DHT22;64453;51.944;9.796;2023-02-02T05:09:19;9.30;56.50
75819;DHT22;64453;51.944;9.796;2023-02-02T05:11:46;8.50;57.80
75819;DHT22;64453;51.944;9.796;2023-02-02T05:14:13;9.10;56.90
75819;DHT22;64453;51.944;9.796;2023-02-02T05:16:43;9.40;55.50
75819;DHT22;64453;51.944;9.796;2023-02-02T05:19:12;9.20;56.50
75819;DHT22;64453;51.944;9.796;2023-02-02T05:21:42;9.70;55.60
75819;DHT22;64453;51.944;9.796;2023-02-02T05:24:10;9.60;55.70
75819;DHT22;64453;51.944;9.796;2023-02-02T05:26:37;9.30;56.10
75819;DHT22;64453;51.944;9.796;2023-02-02T05:29:04;9.20;55.70
75819;DHT22;64453;51.944;9.796;2023-02-02T05:31:33;9.00;56.70
75819;DHT22;64453;51.944;9.796;2023-02-02T05:34:00;9.10;56.30
75819;DHT22;64453;51.944;9.796;2023-02-02T05:36:29;9.50;56.00
75819;DHT22;64453;51.944;9.796;2023-02-02T05:38:56;9.60;55.10
75819;DHT22;64453;51.944;9.796;2023-02-02T05:41:23;9.30;55.40
75819;DHT22;64453;51.944;9.796;2023-02-02T05:43:50;9.50;55.60
75819;DHT22;64453;51.944;9.796;2023-02-02T05:46:17;9.60;55.30
75819;DHT22;64453;51.944;9.796;2023-02-02T05:48:43;8.70;56.80
75819;DHT22;64453;51.944;9.796;2023-02-02T05:51:14;9.20;56.30
75819;DHT22;64453;51.944;9.796;2023-02-02T05:53:44;9.30;56.50
75819;DHT22;64453;51.944;9.796;2023-02-02T05:56:11;9.30;56.30
75819;DHT22;64453;51.944;9.796;2023-02-02T05:58:40;9.10;56.40
75819;DHT22;64453;51.944;9.796;2023-02-02T06:01:07;9.40;55.80
75819;DHT22;64453;51.944;9.796;2023-02-02T06:03:34;9.50;55.60
75819;DHT22;64453;51.944;9.796;2023-02-02T06:06:01;9.60;55.90
75819;DHT22;64453;51.944;9.796;2023-02-02T06:08:28;9.50;55.80
75819;DHT22;64453;51.944;9.796;2023-02-02T06:10:57;9.20;55.70
75819;DHT22;64453;51.944;9.796;2023-02-02T06:13:24;8.80;57.30
75819;DHT22;64453;51.944;9.796;2023-02-02T06:15:51;9.10;56.50
75819;DHT22;64453;51.944;9.796;2023-02-02T06:18:18;9.10;56.90
75819;DHT22;64453;51.944;9.796;2023-02-02T06:20:45;9.30;56.30
75819;DHT22;64453;51.944;9.796;2023-02-02T06:23:12;9.20;56.40
75819;DHT22;64453;51.944;9.796;2023-02-02T06:25:39;9.30;56.10
75819;DHT22;64453;51.944;9.796;2023-02-02T06:28:07;9.70;55.70
75819;DHT22;64453;51.944;9.796;2023-02-02T06:30:34;9.10;56.70
75819;DHT22;64453;51.944;9.796;2023-02-02T06:33:01;9.10;57.30
75819;DHT22;64453;51.944;9.796;2023-02-02T06:35:28;9.20;56.50
75819;DHT22;64453;51.944;9.796;2023-02-02T06:37:55;9.10;56.50
75819;DHT22;64453;51.944;9.796;2023-02-02T06:40:23;8.90;57.40
75819;DHT22;64453;51.944;9.796;2023-02-02T06:42:55;9.10;57.10
75819;DHT22;64453;51.944;9.796;2023-02-02T06:45:24;9.10;57.30
75819;DHT22;64453;51.944;9.796;2023-02-02T06:47:52;9.20;57.20
75819;DHT22;64453;51.944;9.796;2023-02-02T06:50:20;9.20;57.80
75819;DHT22;64453;51.944;9.796;2023-02-02T06:52:47;9.10;57.70
75819;DHT22;64453;51.944;9.796;2023-02-02T06:55:14;9.30;57.00
75819;DHT22;64453;51.944;9.796;2023-02-02T06:57:42;9.50;56.90
75819;DHT22;64453;51.944;9.796;2023-02-02T07:00:10;9.30;56.70
75819;DHT22;64453;51.944;9.796;2023-02-02T07:02:39;9.20;56.90
75819;DHT22;64453;51.944;9.796;2023-02-02T07:05:06;9.50;56.70
75819;DHT22;64453;51.944;9.796;2023-02-02T07:07:33;9.50;56.70
75819;DHT22;64453;51.944;9.796;2023-02-02T07:10:00;9.60;56.40
75819;DHT22;64453;51.944;9.796;2023-02-02T07:12:27;9.80;55.80
75819;DHT22;64453;51.944;9.796;2023-02-02T07:14:55;9.60;56.20
75819;DHT22;64453;51.944;9.796;2023-02-02T07:17:23;10.10;54.50
75819;DHT22;64453;51.944;9.796;2023-02-02T07:19:52;9.50;56.10
75819;DHT22;64453;51.944;9.796;2023-02-02T07:22:20;9.70;56.30
75819;DHT22;64453;51.944;9.796;2023-02-02T07:24:47;10.10;55.00
75819;DHT22;64453;51.944;9.796;2023-02-02T07:27:13;10.10;54.00
75819;DHT22;64453;51.944;9.796;2023-02-02T07:29:40;10.10;54.60
75819;DHT22;64453;51.944;9.796;2023-02-02T07:32:07;10.20;54.00
75819;DHT22;64453;51.944;9.796;2023-02-02T07:34:36;9.70;54.20
75819;DHT22;64453;51.944;9.796;2023-02-02T07:37:05;9.70;54.90
75819;DHT22;64453;51.944;9.796;2023-02-02T07:39:32;9.90;54.10
75819;DHT22;64453;51.944;9.796;2023-02-02T07:41:59;9.60;53.60
75819;DHT22;64453;51.944;9.796;2023-02-02T07:44:26;9.60;53.40
75819;DHT22;64453;51.944;9.796;2023-02-02T07:46:53;9.80;52.60
75819;DHT22;64453;51.944;9.796;2023-02-02T07:49:20;9.90;52.10
75819;DHT22;64453;51.944;9.796;2023-02-02T07:51:47;9.30;53.30
75819;DHT22;64453;51.944;9.796;2023-02-02T07:54:15;9.30;52.70
75819;DHT22;64453;51.944;9.796;2023-02-02T07:56:42;9.10;52.60
75819;DHT22;64453;51.944;9.796;2023-02-02T07:59:09;9.10;53.10
75819;DHT22;64453;51.944;9.796;2023-02-02T08:01:37;9.40;53.10
75819;DHT22;64453;51.944;9.796;2023-02-02T08:04:04;9.10;53.10
75819;DHT22;64453;51.944;9.796;2023-02-02T08:06:33;8.70;52.50
75819;DHT22;64453;51.944;9.796;2023-02-02T08:09:03;8.90;53.10
75819;DHT22;64453;51.944;9.796;2023-02-02T08:11:34;9.00;53.30
75819;DHT22;64453;51.944;9.796;2023-02-02T08:14:04;9.00;53.80
75819;DHT22;64453;51.944;9.796;2023-02-02T08:16:32;9.30;52.80
75819;DHT22;64453;51.944;9.796;2023-02-02T08:18:59;8.80;53.70
75819;DHT22;64453;51.944;9.796;2023-02-02T08:21:26;9.20;53.30
75819;DHT22;64453;51.944;9.796;2023-02-02T08:23:54;8.60;54.10
75819;DHT22;64453;51.944;9.796;2023-02-02T08:26:22;8.90;53.50
75819;DHT22;64453;51.944;9.796;2023-02-02T08:28:53;8.80;53.90
75819;DHT22;64453;51.944;9.796;2023-02-02T08:31:23;8.80;53.60
75819;DHT22;64453;51.944;9.796;2023-02-02T08:33:52;9.00;53.70
75819;DHT22;64453;51.944;9.796;2023-02-02T08:36:21;9.30;52.80
75819;DHT22;64453;51.944;9.796;2023-02-02T08:38:49;9.40;53.10
75819;DHT22;64453;51.944;9.796;2023-02-02T08:41:18;9.50;52.70
75819;DHT22;64453;51.944;9.796;2023-02-02T08:43:47;9.20;53.10
75819;DHT22;64453;51.944;9.796;2023-02-02T08:46:17;9.00;53.60
75819;DHT22;64453;51.944;9.796;2023-02-02T08:48:44;9.30;53.30
75819;DHT22;64453;51.944;9.796;2023-02-02T08:51:14;9.60;52.90
75819;DHT22;64453;51.944;9.796;2023-02-02T08:53:44;9.50;52.40
75819;DHT22;64453;51.944;9.796;2023-02-02T08:56:12;9.20;53.80
75819;DHT22;64453;51.944;9.796;2023-02-02T08:58:43;9.40;52.90
75819;DHT22;64453;51.944;9.796;2023-02-02T09:01:13;9.00;53.60
75819;DHT22;64453;51.944;9.796;2023-02-02T09:03:43;9.10;53.90
75819;DHT22;64453;51.944;9.796;2023-02-02T09:06:12;9.20;54.20
75819;DHT22;64453;51.944;9.796;2023-02-02T09:08:41;9.10;54.30
75819;DHT22;64453;51.944;9.796;2023-02-02T09:11:09;9.40;54.40
75819;DHT22;64453;51.944;9.796;2023-02-02T09:13:38;9.20;54.30
75819;DHT22;64453;51.944;9.796;2023-02-02T09:16:09;9.30;54.80
75819;DHT22;64453;51.944;9.796;2023-02-02T09:18:37;9.20;55.00
75819;DHT22;64453;51.944;9.796;2023-02-02T09:21:06;9.60;55.00
75819;DHT22;64453;51.944;9.796;2023-02-02T09:23:36;9.40;54.20
75819;DHT22;64453;51.944;9.796;2023-02-02T09:26:11;9.60;54.40
75819;DHT22;64453;51.944;9.796;2023-02-02T09:28:41;9.50;54.60
75819;DHT22;64453;51.944;9.796;2023-02-02T09:31:09;9.20;55.30
75819;DHT22;64453;51.944;9.796;2023-02-02T09:33:38;9.20;55.70
75819;DHT22;64453;51.944;9.796;2023-02-02T09:36:07;9.10;56.30
75819;DHT22;64453;51.944;9.796;2023-02-02T09:38:35;8.90;56.20
75819;DHT22;64453;51.944;9.796;2023-02-02T09:44:17;8.80;56.60
75819;DHT22;64453;51.944;9.796;2023-02-02T09:46:59;9.10;57.00
75819;DHT22;64453;51.944;9.796;2023-02-02T09:49:35;9.20;56.60
75819;DHT22;64453;51.944;9.796;2023-02-02T09:52:09;9.00;57.90
75819;DHT22;64453;51.944;9.796;2023-02-02T09:54:42;9.40;56.00
75819;DHT22;64453;51.944;9.796;2023-02-02T09:57:15;9.70;55.70
75819;DHT22;64453;51.944;9.796;2023-02-02T09:59:46;9.70;56.10
75819;DHT22;64453;51.944;9.796;2023-02-02T10:02:18;9.50;56.10
75819;DHT22;64453;51.944;9.796;2023-02-02T10:04:51;9.30;55.90
75819;DHT22;64453;51.944;9.796;2023-02-02T10:07:28;9.50;56.00
75819;DHT22;64453;51.944;9.796;2023-02-02T10:10:00;9.30;56.00
75819;DHT22;64453;51.944;9.796;2023-02-02T10:12:33;9.30;56.40
75819;DHT22;64453;51.944;9.796;2023-02-02T10:15:13;9.60;56.00
75819;DHT22;64453;51.944;9.796;2023-02-02T10:17:45;9.40;56.00
75819;DHT22;64453;51.944;9.796;2023-02-02T10:20:23;9.80;56.00
75819;DHT22;64453;51.944;9.796;2023-02-02T10:23:04;9.90;55.80
75819;DHT22;64453;51.944;9.796;2023-02-02T10:25:44;9.80;56.10
75819;DHT22;64453;51.944;9.796;2023-02-02T10:28:18;9.70;56.20
75819;DHT22;64453;51.944;9.796;2023-02-02T10:30:56;9.90;55.80
75819;DHT22;64453;51.944;9.796;2023-02-02T10:33:32;9.80;56.60
75819;DHT22;64453;51.944;9.796;2023-02-02T10:36:09;9.70;55.70
75819;DHT22;64453;51.944;9.796;2023-02-02T10:38:44;9.50;55.90
75819;DHT22;64453;51.944;9.796;2023-02-02T10:41:20;9.50;56.70
75819;DHT22;64453;51.944;9.796;2023-02-02T10:44:01;9.40;57.30
75819;DHT22;64453;51.944;9.796;2023-02-02T10:46:33;9.50;57.40
75819;DHT22;64453;51.944;9.796;2023-02-02T10:49:14;9.60;57.00
75819;DHT22;64453;51.944;9.796;2023-02-02T10:51:51;9.50;56.70
75819;DHT22;64453;51.944;9.796;2023-02-02T10:54:45;8.80;57.50
75819;DHT22;64453;51.944;9.796;2023-02-02T10:57:29;9.00;57.90
75819;DHT22;64453;51.944;9.796;2023-02-02T11:00:04;8.70;58.30
75819;DHT22;64453;51.944;9.796;2023-02-02T11:02:36;9.00;59.20
75819;DHT22;64453;51.944;9.796;2023-02-02T11:05:03;9.20;58.30
75819;DHT22;64453;51.944;9.796;2023-02-02T11:07:51;9.50;58.00
75819;DHT22;64453;51.944;9.796;2023-02-02T11:10:19;9.60;57.50
75819;DHT22;64453;51.944;9.796;2023-02-02T11:12:47;9.60;56.70
75819;DHT22;64453;51.944;9.796;2023-02-02T11:15:29;9.70;57.00
75819;DHT22;64453;51.944;9.796;2023-02-02T11:18:12;9.50;57.30
75819;DHT22;64453;51.944;9.796;2023-02-02T11:20:41;9.90;56.90
75819;DHT22;64453;51.944;9.796;2023-02-02T11:23:16;10.00;55.80
75819;DHT22;64453;51.944;9.796;2023-02-02T11:25:44;9.90;55.80
75819;DHT22;64453;51.944;9.796;2023-02-02T11:28:17;10.10;54.60
75819;DHT22;64453;51.944;9.796;2023-02-02T11:30:47;10.20;54.80
75819;DHT22;64453;51.944;9.796;2023-02-02T11:33:26;10.10;55.00
75819;DHT22;64453;51.944;9.796;2023-02-02T11:35:58;10.30;54.50
75819;DHT22;64453;51.944;9.796;2023-02-02T11:38:28;10.10;55.00
75819;DHT22;64453;51.944;9.796;2023-02-02T11:40:58;10.70;53.90
75819;DHT22;64453;51.944;9.796;2023-02-02T11:43:32;10.60;54.40
75819;DHT22;64453;51.944;9.796;2023-02-02T11:46:06;10.30;53.40
75819;DHT22;64453;51.944;9.796;2023-02-02T11:48:48;10.00;54.30
75819;DHT22;64453;51.944;9.796;2023-02-02T11:51:21;10.10;55.60
75819;DHT22;64453;51.944;9.796;2023-02-02T11:54:01;10.60;54.40
75819;DHT22;64453;51.944;9.796;2023-02-02T11:56:31;10.80;53.70
75819;DHT22;64453;51.944;9.796;2023-02-02T11:58:59;10.60;53.50
75819;DHT22;64453;51.944;9.796;2023-02-02T12:01:30;10.40;53.70
75819;DHT22;64453;51.944;9.796;2023-02-02T12:04:03;10.30;54.70
75819;DHT22;64453;51.944;9.796;2023-02-02T12:06:49;10.50;54.20
75819;DHT22;64453;51.944;9.796;2023-02-02T12:09:19;10.50;54.10
75819;DHT22;64453;51.944;9.796;2023-02-02T12:11:54;10.60;53.90
75819;DHT22;64453;51.944;9.796;2023-02-02T12:14:34;10.50;53.80
75819;DHT22;64453;51.944;9.796;2023-02-02T12:17:20;10.80;53.50
75819;DHT22;64453;51.944;9.796;2023-02-02T12:22:56;10.50;53.40
75819;DHT22;64453;51.944;9.796;2023-02-02T12:25:48;10.30;54.30
75819;DHT22;64453;51.944;9.796;2023-02-02T12:28:34;10.40;53.90
75819;DHT22;64453;51.944;9.796;2023-02-02T12:31:14;10.20;55.10
75819;DHT22;64453;51.944;9.796;2023-02-02T12:33:53;10.50;54.40
75819;DHT22;64453;51.944;9.796;2023-02-02T12:36:31;10.50;54.70
75819;DHT22;64453;51.944;9.796;2023-02-02T12:42:27;10.40;54.70
75819;DHT22;64453;51.944;9.796;2023-02-02T12:45:14;10.70;54.10
75819;DHT22;64453;51.944;9.796;2023-02-02T12:47:55;10.70;54.00
75819;DHT22;64453;51.944;9.796;2023-02-02T12:50:35;11.00;53.40
75819;DHT22;64453;51.944;9.796;2023-02-02T12:53:18;11.00;53.70
75819;DHT22;64453;51.944;9.796;2023-02-02T12:55:59;10.40;54.00
75819;DHT22;64453;51.944;9.796;2023-02-02T12:58:38;10.50;54.50
75819;DHT22;64453;51.944;9.796;2023-02-02T13:01:20;10.80;54.00
75819;DHT22;64453;51.944;9.796;2023-02-02T13:07:06;11.00;53.60
75819;DHT22;64453;51.944;9.796;2023-02-02T13:09:50;10.80;53.70
75819;DHT22;64453;51.944;9.796;2023-02-02T13:12:25;10.50;53.90
75819;DHT22;64453;51.944;9.796;2023-02-02T13:14:57;10.60;54.40
75819;DHT22;64453;51.944;9.796;2023-02-02T13:17:31;10.50;54.60
75819;DHT22;64453;51.944;9.796;2023-02-02T13:20:03;10.50;54.10
75819;DHT22;64453;51.944;9.796;2023-02-02T13:22:35;10.20;55.30
75819;DHT22;64453;51.944;9.796;2023-02-02T13:25:08;10.60;54.40
75819;DHT22;64453;51.944;9.796;2023-02-02T13:27:42;10.70;53.90
75819;DHT22;64453;51.944;9.796;2023-02-02T13:30:16;10.20;54.50
75819;DHT22;64453;51.944;9.796;2023-02-02T13:32:49;10.50;55.40
75819;DHT22;64453;51.944;9.796;2023-02-02T13:35:20;10.50;54.40
75819;DHT22;64453;51.944;9.796;2023-02-02T13:37:50;10.60;54.60
75819;DHT22;64453;51.944;9.796;2023-02-02T13:40:25;10.80;54.00
75819;DHT22;64453;51.944;9.796;2023-02-02T13:43:05;11.40;53.20
75819;DHT22;64453;51.944;9.796;2023-02-02T13:45:50;11.40;52.90
75819;DHT22;64453;51.944;9.796;2023-02-02T13:48:31;11.30;53.60
75819;DHT22;64453;51.944;9.796;2023-02-02T13:54:39;11.00;54.20
75819;DHT22;64453;51.944;9.796;2023-02-02T13:57:33;11.40;53.50
75819;DHT22;64453;51.944;9.796;2023-02-02T14:00:26;11.40;53.20
75819;DHT22;64453;51.944;9.796;2023-02-02T14:02:57;11.40;53.60
75819;DHT22;64453;51.944;9.796;2023-02-02T14:05:29;11.40;53.80
75819;DHT22;64453;51.944;9.796;2023-02-02T14:08:01;11.20;53.50
75819;DHT22;64453;51.944;9.796;2023-02-02T14:10:34;11.20;54.00
75819;DHT22;64453;51.944;9.796;2023-02-02T14:13:15;11.20;53.70
75819;DHT22;64453;51.944;9.796;2023-02-02T14:16:03;11.30;53.90
75819;DHT22;64453;51.944;9.796;2023-02-02T14:18:52;11.40;53.20
75819;DHT22;64453;51.944;9.796;2023-02-02T14:21:57;10.70;54.20
75819;DHT22;64453;51.944;9.796;2023-02-02T14:24:44;10.60;54.60
75819;DHT22;64453;51.944;9.796;2023-02-02T14:27:54;10.80;54.40
75819;DHT22;64453;51.944;9.796;2023-02-02T14:30:31;10.70;53.70
75819;DHT22;64453;51.944;9.796;2023-02-02T14:33:24;10.70;54.10
75819;DHT22;64453;51.944;9.796;2023-02-02T14:36:13;10.60;54.00
75819;DHT22;64453;51.944;9.796;2023-02-02T14:41:55;10.80;53.70
75819;DHT22;64453;51.944;9.796;2023-02-02T14:45:05;10.60;54.20
75819;DHT22;64453;51.944;9.796;2023-02-02T14:47:51;10.40;52.90
75819;DHT22;64453;51.944;9.796;2023-02-02T14:50:24;10.40;53.80
75819;DHT22;64453;51.944;9.796;2023-02-02T14:53:04;10.60;52.80
75819;DHT22;64453;51.944;9.796;2023-02-02T14:55:35;10.50;52.40
75819;DHT22;64453;51.944;9.796;2023-02-02T14:58:05;10.40;52.30
75819;DHT22;64453;51.944;9.796;2023-02-02T15:00:34;10.50;53.00
75819;DHT22;64453;51.944;9.796;2023-02-02T15:03:31;10.40;52.30
75819;DHT22;64453;51.944;9.796;2023-02-02T15:06:05;10.50;52.30
75819;DHT22;64453;51.944;9.796;2023-02-02T15:08:40;10.70;51.90
75819;DHT22;64453;51.944;9.796;2023-02-02T15:11:09;10.60;51.40
75819;DHT22;64453;51.944;9.796;2023-02-02T15:14:02;10.50;50.80
75819;DHT22;64453;51.944;9.796;2023-02-02T15:16:37;10.60;52.00
75819;DHT22;64453;51.944;9.796;2023-02-02T15:19:20;10.80;51.30
75819;DHT22;64453;51.944;9.796;2023-02-02T15:21:54;10.70;51.60
75819;DHT22;64453;51.944;9.796;2023-02-02T15:24:26;11.10;50.90
75819;DHT22;64453;51.944;9.796;2023-02-02T15:26:54;11.10;50.70
75819;DHT22;64453;51.944;9.796;2023-02-02T15:29:33;10.90;50.70
75819;DHT22;64453;51.944;9.796;2023-02-02T15:32:08;10.90;51.10
75819;DHT22;64453;51.944;9.796;2023-02-02T15:34:44;10.50;51.90
75819;DHT22;64453;51.944;9.796;2023-02-02T15:37:15;10.70;52.00
75819;DHT22;64453;51.944;9.796;2023-02-02T15:39:47;10.80;52.10
75819;DHT22;64453;51.944;9.796;2023-02-02T15:42:19;11.10;51.30
75819;DHT22;64453;51.944;9.796;2023-02-02T15:45:29;11.20;50.90
75819;DHT22;64453;51.944;9.796;2023-02-02T15:48:18;10.70;51.60
75819;DHT22;64453;51.944;9.796;2023-02-02T15:50:50;10.60;52.40
75819;DHT22;64453;51.944;9.796;2023-02-02T15:53:22;10.90;52.00
75819;DHT22;64453;51.944;9.796;2023-02-02T15:55:54;10.90;51.70
75819;DHT22;64453;51.944;9.796;2023-02-02T15:58:26;11.00;51.90
75819;DHT22;64453;51.944;9.796;2023-02-02T16:01:01;11.20;51.30
75819;DHT22;64453;51.944;9.796;2023-02-02T16:03:37;10.90;51.90
75819;DHT22;64453;51.944;9.796;2023-02-02T16:06:10;11.00;52.20
75819;DHT22;64453;51.944;9.796;2023-02-02T16:08:38;11.00;51.90
75819;DHT22;64453;51.944;9.796;2023-02-02T16:11:09;11.00;51.70
75819;DHT22;64453;51.944;9.796;2023-02-02T16:13:38;11.00;52.20
75819;DHT22;64453;51.944;9.796;2023-02-02T16:16:20;11.00;52.10
75819;DHT22;64453;51.944;9.796;2023-02-02T16:19:01;10.90;52.60
75819;DHT22;64453;51.944;9.796;2023-02-02T16:21:31;10.60;53.20
75819;DHT22;64453;51.944;9.796;2023-02-02T16:24:03;10.50;53.70
75819;DHT22;64453;51.944;9.796;2023-02-02T16:26:34;10.60;52.90
75819;DHT22;64453;51.944;9.796;2023-02-02T16:29:02;10.70;53.30
75819;DHT22;64453;51.944;9.796;2023-02-02T16:31:29;10.70;53.60
75819;DHT22;64453;51.944;9.796;2023-02-02T16:33:57;10.80;53.50
75819;DHT22;64453;51.944;9.796;2023-02-02T16:36:28;10.60;53.50